Time;durP1;ratioP1;P1;durP2;ratioP2;P2;SDS_P1;SDS_P2;PMS_P1;PMS_P2;Temp;Humidity;BMP_temperature;BMP_pressure;BME280_temperature;BME280_humidity;BME280_pressure;Samples;Min_cycle;Max_cycle;Signal;HPM_P1;HPM_P2
2022/11/01 00:01:50;;;;;;;7.57;4.45;;;15.50;99.90;;;;;;5096054;28;20444;-39
2022/11/01 00:04:16;;;;;;;12.80;4.38;;;15.50;99.90;;;;;;5107279;28;20877;-45
2022/11/01 00:06:42;;;;;;;10.35;3.72;;;15.60;99.90;;;;;;5103762;28;20032;-43
2022/11/01 00:09:08;;;;;;;6.22;4.07;;;15.60;99.90;;;;;;5107231;28;20023;-43
2022/11/01 00:11:33;;;;;;;7.93;4.00;;;15.70;99.90;;;;;;5112900;28;20031;-53
2022/11/01 00:13:59;;;;;;;13.27;4.22;;;15.70;99.90;;;;;;5101846;28;20408;-40
2022/11/01 00:16:25;;;;;;;12.30;4.93;;;15.80;99.90;;;;;;5106494;28;20058;-41
2022/11/01 00:18:50;;;;;;;8.15;3.97;;;15.80;99.90;;;;;;5107966;28;20080;-43
2022/11/01 00:21:17;;;;;;;9.27;4.20;;;15.90;99.90;;;;;;5111213;28;20062;-45
2022/11/01 00:23:43;;;;;;;10.38;4.18;;;15.90;99.90;;;;;;5101026;28;20467;-44
2022/11/01 00:26:15;;;;;;;9.15;4.50;;;15.90;99.90;;;;;;5098897;27;20028;-44
2022/11/01 00:28:40;;;;;;;9.95;4.25;;;15.90;99.90;;;;;;5111723;27;20024;-43
2022/11/01 00:31:06;;;;;;;14.50;4.10;;;15.80;99.90;;;;;;5098416;27;20381;-41
2022/11/01 00:33:31;;;;;;;8.95;3.38;;;15.80;99.90;;;;;;5099932;28;20075;-39
2022/11/01 00:36:00;;;;;;;7.90;4.28;;;15.90;99.90;;;;;;5095502;27;20471;-42
2022/11/01 00:38:27;;;;;;;8.57;3.90;;;15.90;99.90;;;;;;5107225;27;20023;-46
2022/11/01 00:40:53;;;;;;;19.25;4.03;;;16.10;99.90;;;;;;5111125;27;20441;-45
2022/11/01 00:43:18;;;;;;;9.60;3.85;;;16.10;99.90;;;;;;5103133;28;20467;-44
2022/11/01 00:45:44;;;;;;;15.80;4.35;;;16.20;99.90;;;;;;5097486;28;20036;-36
2022/11/01 00:48:13;;;;;;;6.13;3.65;;;16.30;99.90;;;;;;5098656;28;20099;-42
2022/11/01 00:50:39;;;;;;;12.10;4.75;;;16.30;99.90;;;;;;5102117;28;20111;-46
2022/11/01 00:53:06;;;;;;;10.90;3.90;;;16.40;99.90;;;;;;5098415;28;20059;-45
2022/11/01 00:55:31;;;;;;;14.23;3.95;;;16.40;99.90;;;;;;5101310;28;20034;-44
2022/11/01 00:57:57;;;;;;;10.13;3.92;;;16.40;99.90;;;;;;5109044;28;20040;-48
2022/11/01 01:00:23;;;;;;;6.82;3.45;;;16.60;99.90;;;;;;5103983;28;20490;-46
2022/11/01 01:02:48;;;;;;;9.05;4.03;;;16.60;99.90;;;;;;5109459;28;20496;-45
2022/11/01 01:05:14;;;;;;;5.18;3.17;;;16.60;99.90;;;;;;5102581;28;20047;-50
2022/11/01 01:07:40;;;;;;;7.78;3.58;;;16.60;99.90;;;;;;5112000;28;20429;-48
2022/11/01 01:10:07;;;;;;;9.13;3.95;;;16.60;99.90;;;;;;5103576;28;20527;-40
2022/11/01 01:12:33;;;;;;;5.35;3.20;;;16.60;99.90;;;;;;5112408;28;20024;-44
2022/11/01 01:14:58;;;;;;;7.40;3.42;;;16.70;99.90;;;;;;5114559;28;20448;-44
2022/11/01 01:17:24;;;;;;;9.10;3.97;;;16.70;99.90;;;;;;5113603;28;20055;-45
2022/11/01 01:19:49;;;;;;;8.18;3.28;;;16.70;99.90;;;;;;5101005;27;20035;-41
2022/11/01 01:22:15;;;;;;;7.35;3.15;;;16.70;99.90;;;;;;5094680;28;20055;-36
2022/11/01 01:24:44;;;;;;;4.78;3.08;;;16.70;99.90;;;;;;5111624;28;20038;-39
2022/11/01 01:27:14;;;;;;;6.43;3.60;;;16.60;99.90;;;;;;5096208;28;20505;-42
2022/11/01 01:29:40;;;;;;;11.65;3.20;;;16.70;99.90;;;;;;5108077;28;20073;-40
2022/11/01 01:32:07;;;;;;;9.45;3.50;;;16.60;99.90;;;;;;5108244;28;20031;-42
2022/11/01 01:34:33;;;;;;;7.72;3.72;;;16.70;99.90;;;;;;5106769;28;20041;-37
2022/11/01 01:36:59;;;;;;;7.20;3.67;;;16.70;99.90;;;;;;5103604;28;20439;-48
2022/11/01 01:39:24;;;;;;;8.43;3.90;;;16.70;99.90;;;;;;5110286;28;20059;-38
2022/11/01 01:41:56;;;;;;;13.43;3.80;;;16.70;99.90;;;;;;5103749;28;20038;-38
2022/11/01 01:44:49;;;;;;;13.38;3.30;;;16.70;99.90;;;;;;5101282;28;20112;-40
2022/11/01 01:47:25;;;;;;;7.65;3.28;;;16.70;99.90;;;;;;5103248;28;20039;-42
2022/11/01 01:53:00;;;;;;;8.93;3.40;;;16.70;99.90;;;;;;5095886;28;20094;-41
2022/11/01 01:55:55;;;;;;;5.03;3.08;;;16.70;99.90;;;;;;5100049;28;20489;-41
2022/11/01 01:58:28;;;;;;;10.80;3.28;;;16.70;99.90;;;;;;5093072;28;20056;-36
2022/11/01 02:00:54;;;;;;;6.85;3.90;;;16.70;99.90;;;;;;5105385;28;20102;-42
2022/11/01 02:03:22;;;;;;;9.88;3.22;;;16.70;99.90;;;;;;5097451;28;20541;-39
2022/11/01 02:05:50;;;;;;;;;;;16.80;99.90;;;;;;5101301;28;20107;-41
2022/11/01 02:08:25;;;;;;;8.50;3.35;;;16.80;99.90;;;;;;5113514;28;19998;-40
2022/11/01 02:11:02;;;;;;;8.65;3.20;;;16.80;99.90;;;;;;5100129;28;20028;-39
2022/11/01 02:13:29;;;;;;;5.68;2.58;;;16.90;99.90;;;;;;5104197;28;20081;-39
2022/11/01 02:16:31;;;;;;;6.75;3.35;;;16.90;99.90;;;;;;5097758;28;20126;-34
2022/11/01 02:19:18;;;;;;;4.32;3.38;;;16.90;99.90;;;;;;5096781;28;20028;-39
2022/11/01 02:22:15;;;;;;;9.45;3.75;;;16.90;99.90;;;;;;5092714;28;20499;-39
2022/11/01 02:25:11;;;;;;;9.45;2.88;;;17.00;99.90;;;;;;5095708;28;20040;-40
2022/11/01 02:27:58;;;;;;;9.45;3.60;;;17.00;99.90;;;;;;5105937;28;20042;-37
2022/11/01 02:30:38;;;;;;;7.72;3.50;;;17.10;99.90;;;;;;5101800;28;20032;-36
2022/11/01 02:33:24;;;;;;;8.15;3.53;;;17.10;99.90;;;;;;5095743;28;20468;-39
2022/11/01 02:36:10;;;;;;;6.22;3.13;;;17.10;99.90;;;;;;5099529;28;20028;-39
2022/11/01 02:38:47;;;;;;;5.78;3.03;;;17.20;99.90;;;;;;5094540;28;20032;-36
2022/11/01 02:41:26;;;;;;;4.07;3.20;;;17.20;99.90;;;;;;5094667;28;20054;-39
2022/11/01 02:44:01;;;;;;;2.70;2.42;;;17.20;99.90;;;;;;5102643;28;20392;-34
2022/11/01 02:49:18;;;;;;;5.97;2.75;;;17.30;99.90;;;;;;5102625;28;20058;-40
2022/11/01 02:51:45;;;;;;;5.30;2.45;;;17.30;99.90;;;;;;5100478;28;20047;-50
2022/11/01 02:54:20;;;;;;;3.07;2.53;;;17.30;99.90;;;;;;5097515;28;20023;-41
2022/11/01 02:56:46;;;;;;;9.48;3.15;;;17.20;99.90;;;;;;5092379;28;20298;-39
2022/11/01 02:59:21;;;;;;;9.10;2.92;;;17.20;99.90;;;;;;5102085;28;20102;-36
2022/11/01 03:01:54;;;;;;;9.27;2.88;;;17.30;99.90;;;;;;5097189;27;20032;-39
2022/11/01 03:04:20;;;;;;;7.88;3.00;;;17.30;99.90;;;;;;5103987;28;20068;-37
2022/11/01 03:06:53;;;;;;;7.70;3.00;;;17.30;99.90;;;;;;5104355;28;20033;-45
2022/11/01 03:09:19;;;;;;;4.72;2.10;;;17.20;99.90;;;;;;5104244;28;20467;-43
2022/11/01 03:12:07;;;;;;;6.80;2.92;;;17.20;99.90;;;;;;5103189;28;20043;-44
2022/11/01 03:14:53;;;;;;;5.22;2.92;;;17.20;99.90;;;;;;5101285;28;20036;-43
2022/11/01 03:17:46;;;;;;;5.45;2.28;;;17.20;99.90;;;;;;5098636;28;20529;-45
2022/11/01 03:20:46;;;;;;;10.68;2.75;;;17.20;99.90;;;;;;5096867;28;20082;-54
2022/11/01 03:23:14;;;;;;;5.78;2.20;;;17.20;99.90;;;;;;5111035;28;20516;-43
2022/11/01 03:25:43;;;;;;;6.35;2.08;;;17.10;99.90;;;;;;5110389;28;20050;-43
2022/11/01 03:28:35;;;;;;;3.47;1.88;;;17.10;99.90;;;;;;5097769;28;20093;-43
2022/11/01 03:31:18;;;;;;;4.10;1.60;;;17.00;99.90;;;;;;5109052;28;20030;-41
2022/11/01 03:33:47;;;;;;;6.50;1.63;;;17.00;99.90;;;;;;5096445;28;20038;-43
2022/11/01 03:36:19;;;;;;;4.10;1.60;;;17.00;99.90;;;;;;5096339;28;20016;-37
2022/11/01 03:39:00;;;;;;;2.78;1.33;;;16.90;99.90;;;;;;5100659;28;20096;-39
2022/11/01 03:41:28;;;;;;;5.43;1.20;;;16.90;99.90;;;;;;5098049;28;20460;-44
2022/11/01 03:43:54;;;;;;;1.33;0.80;;;16.70;99.90;;;;;;5097162;28;20055;-45
2022/11/01 03:46:20;;;;;;;0.50;0.50;;;16.70;99.90;;;;;;5112826;28;20494;-41
2022/11/01 03:48:45;;;;;;;1.92;0.93;;;16.60;99.90;;;;;;5100008;28;20040;-42
2022/11/01 03:51:12;;;;;;;0.95;0.70;;;16.60;99.90;;;;;;5109087;28;20495;-43
2022/11/01 03:53:37;;;;;;;6.50;1.08;;;16.50;99.90;;;;;;5099032;28;20027;-43
2022/11/01 03:56:03;;;;;;;1.63;0.55;;;16.50;99.90;;;;;;5101065;28;20024;-45
2022/11/01 03:58:40;;;;;;;1.00;0.55;;;16.40;99.90;;;;;;5093902;28;20036;-42
2022/11/01 04:01:07;;;;;;;1.95;0.98;;;16.30;99.90;;;;;;5097345;28;20115;-45
2022/11/01 04:03:33;;;;;;;2.30;0.93;;;16.20;99.90;;;;;;5107563;28;20047;-47
2022/11/01 04:05:58;;;;;;;6.38;1.45;;;16.20;99.90;;;;;;5105040;28;20070;-43
2022/11/01 04:08:24;;;;;;;0.80;0.60;;;16.20;99.90;;;;;;5115150;28;20448;-44
2022/11/01 04:10:49;;;;;;;4.97;1.17;;;16.10;99.90;;;;;;5105265;28;20040;-44
2022/11/01 04:13:15;;;;;;;0.47;0.47;;;16.10;99.90;;;;;;5102541;28;20077;-43
2022/11/01 04:21:13;;;;;;;0.98;0.45;;;15.90;99.90;;;;;;5107885;28;20039;-45
2022/11/01 04:23:39;;;;;;;0.85;0.57;;;15.80;99.90;;;;;;5100361;28;20043;-43
2022/11/01 04:26:06;;;;;;;1.05;0.70;;;15.80;99.90;;;;;;5109770;28;20040;-43
2022/11/01 04:28:32;;;;;;;1.20;1.10;;;15.70;99.90;;;;;;5094967;28;20027;-44
2022/11/01 04:30:57;;;;;;;3.80;0.70;;;15.70;99.90;;;;;;5096506;28;20102;-38
2022/11/01 04:33:23;;;;;;;6.82;0.93;;;15.60;99.90;;;;;;5104428;28;20035;-38
2022/11/01 04:35:49;;;;;;;2.92;0.85;;;15.60;99.90;;;;;;5099151;28;20030;-43
2022/11/01 04:38:15;;;;;;;4.03;0.55;;;15.50;99.90;;;;;;5102070;28;20102;-45
2022/11/01 04:40:42;;;;;;;6.85;0.88;;;15.50;99.90;;;;;;5111677;28;20546;-50
2022/11/01 04:43:08;;;;;;;1.40;0.50;;;15.50;99.90;;;;;;5104721;28;20099;-38
2022/11/01 04:45:34;;;;;;;1.17;0.30;;;15.40;99.90;;;;;;5092820;28;20036;-42
2022/11/01 04:48:14;;;;;;;3.45;0.70;;;15.40;99.90;;;;;;5111885;28;20031;-43
2022/11/01 04:50:40;;;;;;;6.10;0.82;;;15.30;99.90;;;;;;5099645;28;20028;-44
2022/11/01 04:53:07;;;;;;;2.90;0.50;;;15.30;99.90;;;;;;5096169;28;20032;-52
2022/11/01 04:55:32;;;;;;;2.72;0.98;;;15.30;99.90;;;;;;5114072;28;20452;-43
2022/11/01 04:57:58;;;;;;;1.17;0.38;;;15.30;99.90;;;;;;5100992;28;20047;-45
2022/11/01 05:00:25;;;;;;;3.13;0.50;;;15.20;99.90;;;;;;5100916;28;20019;-40
2022/11/01 05:02:51;;;;;;;5.40;0.82;;;15.20;99.90;;;;;;5094569;28;20028;-42
2022/11/01 05:05:18;;;;;;;3.85;0.88;;;15.10;99.90;;;;;;5106234;28;20031;-42
2022/11/01 05:07:44;;;;;;;1.63;1.08;;;15.10;99.90;;;;;;5106290;28;20039;-39
2022/11/01 05:10:10;;;;;;;3.03;1.15;;;15.00;99.90;;;;;;5110453;28;20537;-37
2022/11/01 05:12:36;;;;;;;6.05;0.98;;;14.90;99.90;;;;;;5111461;28;20475;-38
2022/11/01 05:15:03;;;;;;;3.05;0.55;;;14.90;99.90;;;;;;5108006;28;20016;-35
2022/11/01 05:17:28;;;;;;;5.70;0.88;;;14.90;99.90;;;;;;5100830;28;20464;-37
2022/11/01 05:19:54;;;;;;;2.17;0.80;;;14.90;99.90;;;;;;5094533;28;20084;-42
2022/11/01 05:22:20;;;;;;;7.13;1.33;;;14.80;99.90;;;;;;5106777;28;20075;-42
2022/11/01 05:24:45;;;;;;;6.75;1.08;;;14.70;99.90;;;;;;5099148;28;20418;-44
2022/11/01 05:27:11;;;;;;;4.25;0.65;;;14.70;99.90;;;;;;5102323;28;20024;-43
2022/11/01 05:29:36;;;;;;;2.30;0.50;;;14.70;99.90;;;;;;5096592;28;20028;-44
2022/11/01 05:32:02;;;;;;;4.88;0.98;;;14.70;99.90;;;;;;5098284;28;20464;-38
2022/11/01 05:34:28;;;;;;;1.45;0.30;;;14.70;99.90;;;;;;5094186;28;20020;-52
2022/11/01 05:36:53;;;;;;;8.30;0.60;;;14.60;99.90;;;;;;5094731;28;20028;-38
2022/11/01 05:39:19;;;;;;;1.15;0.75;;;14.60;99.90;;;;;;5094678;28;20073;-38
2022/11/01 05:41:44;;;;;;;6.00;0.70;;;14.60;99.90;;;;;;5091911;28;20032;-33
2022/11/01 05:44:10;;;;;;;3.47;0.90;;;14.60;99.90;;;;;;5091565;28;20024;-39
2022/11/01 05:46:36;;;;;;;8.85;1.20;;;14.60;99.90;;;;;;5111125;28;20026;-48
2022/11/01 05:49:01;;;;;;;6.18;0.90;;;14.60;99.90;;;;;;5107368;28;20027;-36
2022/11/01 05:51:27;;;;;;;8.43;1.90;;;14.60;99.90;;;;;;5099740;28;20031;-35
2022/11/01 05:53:52;;;;;;;8.90;1.52;;;14.50;99.90;;;;;;5109125;28;20031;-34
2022/11/01 05:56:18;;;;;;;6.82;1.45;;;14.50;99.90;;;;;;5092524;28;20020;-37
2022/11/01 05:58:45;;;;;;;11.52;1.83;;;14.50;99.90;;;;;;5085685;28;20092;-37
2022/11/01 06:01:11;;;;;;;9.80;1.30;;;14.50;99.90;;;;;;5092104;28;20039;-37
2022/11/01 06:03:37;;;;;;;5.35;1.38;;;14.50;99.90;;;;;;5109156;28;20499;-42
2022/11/01 06:06:02;;;;;;;12.77;1.85;;;14.50;99.90;;;;;;5096045;28;20024;-44
2022/11/01 06:08:29;;;;;;;7.15;0.98;;;14.50;99.90;;;;;;5109855;28;20042;-41
2022/11/01 06:11:04;;;;;;;2.67;0.70;;;14.50;99.90;;;;;;5108434;28;20063;-42
2022/11/01 06:13:31;;;;;;;2.67;1.02;;;14.60;99.90;;;;;;5098124;28;20034;-41
2022/11/01 06:16:01;;;;;;;5.00;1.05;;;14.50;99.90;;;;;;5092637;28;20028;-41
2022/11/01 06:18:26;;;;;;;3.50;1.30;;;14.50;99.90;;;;;;5103102;28;20364;-47
2022/11/01 06:20:53;;;;;;;8.70;1.25;;;14.50;99.90;;;;;;5106101;28;20031;-41
2022/11/01 06:23:19;;;;;;;10.48;1.70;;;14.50;99.90;;;;;;5098170;28;20024;-41
2022/11/01 06:25:44;;;;;;;7.70;1.38;;;14.40;99.90;;;;;;5093766;28;20058;-40
2022/11/01 06:28:10;;;;;;;4.55;2.65;;;14.40;99.90;;;;;;5097573;28;20055;-43
2022/11/01 06:30:37;;;;;;;10.80;1.10;;;14.40;99.90;;;;;;5093001;28;20535;-45
2022/11/01 06:33:05;;;;;;;6.45;1.45;;;14.40;99.90;;;;;;5094150;28;20027;-42
2022/11/01 06:35:31;;;;;;;15.73;1.65;;;14.30;99.90;;;;;;5105013;28;20030;-42
2022/11/01 06:38:05;;;;;;;12.82;1.35;;;14.30;99.90;;;;;;5091823;28;20455;-37
2022/11/01 06:40:35;;;;;;;6.35;1.38;;;14.30;99.90;;;;;;5090808;28;20023;-36
2022/11/01 06:43:02;;;;;;;12.90;1.42;;;14.30;99.90;;;;;;5101089;28;20023;-36
2022/11/01 06:45:29;;;;;;;8.23;1.93;;;14.30;99.90;;;;;;5093470;28;20513;-39
2022/11/01 06:47:54;;;;;;;10.18;2.10;;;14.30;99.90;;;;;;5092531;28;20456;-34
2022/11/01 06:50:20;;;;;;;7.45;1.13;;;14.30;99.90;;;;;;5107088;28;20077;-41
2022/11/01 06:52:46;;;;;;;8.20;1.45;;;14.30;99.90;;;;;;5103941;28;20058;-38
2022/11/01 06:55:12;;;;;;;9.63;1.40;;;14.30;99.90;;;;;;5096317;28;20476;-44
2022/11/01 06:57:37;;;;;;;7.30;1.23;;;14.30;99.90;;;;;;5111372;28;20019;-34
2022/11/01 07:00:03;;;;;;;8.88;1.95;;;14.20;99.90;;;;;;5097959;28;20642;-39
2022/11/01 07:02:29;;;;;;;11.68;1.58;;;14.10;99.90;;;;;;5097622;28;20057;-38
2022/11/01 07:04:55;;;;;;;7.28;1.30;;;14.10;99.90;;;;;;5094024;28;20058;-33
2022/11/01 07:07:20;;;;;;;8.43;1.35;;;14.10;99.90;;;;;;5104355;28;20515;-51
2022/11/01 07:09:46;;;;;;;11.05;1.67;;;14.10;99.90;;;;;;5093287;28;20032;-39
2022/11/01 07:12:12;;;;;;;11.95;1.90;;;14.10;99.90;;;;;;5100677;28;20118;-39
2022/11/01 07:14:37;;;;;;;11.70;1.50;;;14.20;99.90;;;;;;5096723;28;20024;-35
2022/11/01 07:17:03;;;;;;;8.77;1.70;;;14.10;99.90;;;;;;5092555;28;21582;-35
2022/11/01 07:19:29;;;;;;;7.78;1.70;;;14.10;99.90;;;;;;5106722;28;20015;-37
2022/11/01 07:21:54;;;;;;;10.68;2.55;;;14.10;99.90;;;;;;5100333;28;20026;-38
2022/11/01 07:24:20;;;;;;;15.10;2.20;;;14.00;99.90;;;;;;5100239;27;20531;-37
2022/11/01 07:26:46;;;;;;;12.35;2.05;;;14.10;99.90;;;;;;5108591;28;20035;-34
2022/11/01 07:29:11;;;;;;;3.42;0.90;;;14.10;99.90;;;;;;5107293;28;20490;-39
2022/11/01 07:31:37;;;;;;;8.20;2.30;;;14.10;99.90;;;;;;5107777;28;20395;-36
2022/11/01 07:34:04;;;;;;;9.55;1.20;;;14.10;99.90;;;;;;5096528;28;20484;-36
2022/11/01 07:36:29;;;;;;;10.55;1.33;;;14.10;99.90;;;;;;5102313;28;20400;-34
2022/11/01 07:38:55;;;;;;;11.00;1.48;;;14.10;99.90;;;;;;5094892;28;20024;-36
2022/11/01 07:41:21;;;;;;;10.35;1.67;;;14.20;99.90;;;;;;5109591;28;20020;-40
2022/11/01 07:43:46;;;;;;;4.60;1.30;;;14.20;99.90;;;;;;5104650;28;20471;-35
2022/11/01 07:46:12;;;;;;;7.82;1.20;;;14.20;99.90;;;;;;5097710;28;20031;-36
2022/11/01 07:48:38;;;;;;;5.50;1.60;;;14.20;99.90;;;;;;5105139;28;20028;-48
2022/11/01 07:51:04;;;;;;;6.88;1.55;;;14.20;99.90;;;;;;5102495;28;20115;-37
2022/11/01 07:53:31;;;;;;;4.45;1.10;;;14.20;99.90;;;;;;5103697;28;20027;-43
2022/11/01 07:55:59;;;;;;;6.93;1.48;;;14.20;99.90;;;;;;5108931;28;20020;-42
2022/11/01 07:58:24;;;;;;;;;;;14.20;99.90;;;;;;5101482;28;20052;-41
2022/11/01 08:00:50;;;;;;;5.65;1.48;;;14.20;99.90;;;;;;5100429;28;19912;-43
2022/11/01 08:03:18;;;;;;;7.40;1.10;;;14.30;99.90;;;;;;5114798;28;20024;-41
2022/11/01 08:05:45;;;;;;;4.75;1.52;;;14.30;99.90;;;;;;5104738;28;20538;-42
2022/11/01 08:08:12;;;;;;;11.67;1.73;;;14.20;99.90;;;;;;5095740;28;20500;-44
2022/11/01 08:10:38;;;;;;;5.93;1.30;;;14.30;99.90;;;;;;5105261;28;20035;-42
2022/11/01 08:13:12;;;;;;;10.52;1.17;;;14.30;99.90;;;;;;5108864;28;20027;-42
2022/11/01 08:15:38;;;;;;;15.10;1.42;;;14.40;99.90;;;;;;5114350;28;20036;-43
2022/11/01 08:18:04;;;;;;;23.02;2.50;;;14.40;99.90;;;;;;5096382;28;20368;-38
2022/11/01 08:20:30;;;;;;;5.60;1.20;;;14.40;99.90;;;;;;5110231;28;20012;-42
2022/11/01 08:22:56;;;;;;;18.05;1.60;;;14.40;99.90;;;;;;5107973;28;20024;-42
2022/11/01 08:25:22;;;;;;;10.80;1.75;;;14.50;99.90;;;;;;5099839;28;20472;-42
2022/11/01 08:27:49;;;;;;;11.90;2.38;;;14.50;99.90;;;;;;5109013;28;20407;-43
2022/11/01 08:30:17;;;;;;;7.70;1.42;;;14.50;99.90;;;;;;5111991;28;20479;-42
2022/11/01 08:32:43;;;;;;;7.97;1.50;;;14.50;99.90;;;;;;5105494;28;20097;-42
2022/11/01 08:35:10;;;;;;;9.65;1.40;;;14.50;99.90;;;;;;5117219;27;20023;-42
2022/11/01 08:37:37;;;;;;;16.95;2.50;;;14.60;99.90;;;;;;5104623;28;20486;-55
2022/11/01 08:40:03;;;;;;;10.88;1.20;;;14.70;99.90;;;;;;5104694;28;20021;-38
2022/11/01 08:42:29;;;;;;;8.82;1.20;;;14.70;99.90;;;;;;5102030;28;20358;-39
2022/11/01 08:44:55;;;;;;;8.32;1.98;;;14.70;99.90;;;;;;5102666;28;20107;-38
2022/11/01 08:47:21;;;;;;;7.20;1.10;;;14.60;99.90;;;;;;5099762;28;20031;-40
2022/11/01 08:49:46;;;;;;;9.48;1.75;;;14.60;99.90;;;;;;5105301;28;20070;-40
2022/11/01 08:52:12;;;;;;;14.82;1.63;;;14.70;99.90;;;;;;5102370;28;20369;-38
2022/11/01 08:54:37;;;;;;;8.32;1.50;;;14.70;99.90;;;;;;5104404;28;20030;-38
2022/11/01 08:57:03;;;;;;;12.07;1.58;;;14.70;99.90;;;;;;5104835;28;20072;-49
2022/11/01 08:59:29;;;;;;;11.50;1.75;;;14.70;99.90;;;;;;5102361;28;20039;-38
2022/11/01 09:01:54;;;;;;;29.67;2.03;;;14.60;99.90;;;;;;5111504;28;20036;-41
2022/11/01 09:04:20;;;;;;;8.15;1.10;;;14.60;99.90;;;;;;5107892;28;20031;-42
2022/11/01 09:06:46;;;;;;;12.63;1.58;;;14.70;99.90;;;;;;5097713;28;20031;-43
2022/11/01 09:09:12;;;;;;;4.35;1.02;;;14.70;99.90;;;;;;5101148;28;20028;-34
2022/11/01 09:11:38;;;;;;;11.75;2.75;;;14.70;99.90;;;;;;5102821;28;20480;-38
2022/11/01 09:14:04;;;;;;;12.15;1.38;;;14.60;99.90;;;;;;5119377;27;20368;-37
2022/11/01 09:16:31;;;;;;;13.82;1.38;;;14.70;99.90;;;;;;5106988;28;20030;-36
2022/11/01 09:19:00;;;;;;;10.18;2.40;;;14.70;99.90;;;;;;5110885;28;20030;-42
2022/11/01 09:21:27;;;;;;;25.00;2.08;;;14.70;99.90;;;;;;5112359;28;20544;-32
2022/11/01 09:23:52;;;;;;;8.82;1.35;;;14.70;99.90;;;;;;5113207;28;20058;-42
2022/11/01 09:26:18;;;;;;;3.38;1.00;;;14.80;99.90;;;;;;5114177;28;20361;-43
2022/11/01 09:28:44;;;;;;;10.60;1.73;;;14.90;99.90;;;;;;5112041;28;20027;-39
2022/11/01 09:31:11;;;;;;;18.42;1.77;;;15.10;99.90;;;;;;5106696;28;20102;-41
2022/11/01 09:33:37;;;;;;;22.63;3.90;;;15.20;99.90;;;;;;5103250;28;20036;-40
2022/11/01 09:36:03;;;;;;;14.82;2.30;;;15.30;99.90;;;;;;5097872;28;20026;-38
2022/11/01 09:38:29;;;;;;;17.75;1.45;;;15.30;99.90;;;;;;5114243;27;20031;-46
2022/11/01 09:41:15;;;;;;;17.10;1.58;;;15.40;99.90;;;;;;5105897;28;20023;-37
2022/11/01 09:43:44;;;;;;;9.53;1.57;;;15.40;99.90;;;;;;5106822;27;20099;-36
2022/11/01 09:46:16;;;;;;;8.77;1.23;;;15.50;99.90;;;;;;5128471;27;20027;-62
2022/11/01 09:49:01;;;;;;;9.65;2.05;;;15.50;99.90;;;;;;5130021;27;20023;-61
2022/11/01 09:51:28;;;;;;;10.73;2.83;;;15.40;99.90;;;;;;5096850;28;20015;-36
2022/11/01 09:53:57;;;;;;;10.07;1.55;;;15.40;99.90;;;;;;5103139;28;20035;-37
2022/11/01 09:56:46;;;;;;;14.52;2.75;;;15.40;99.90;;;;;;5113506;28;20035;-40
2022/11/01 09:59:33;;;;;;;11.18;1.58;;;15.30;99.90;;;;;;5067167;28;20084;-44
2022/11/01 10:02:36;;;;;;;7.35;1.52;;;15.30;99.90;;;;;;5066921;28;20480;-39
2022/11/01 10:05:20;;;;;;;5.50;1.02;;;15.40;99.90;;;;;;5065471;28;20032;-37
2022/11/01 10:07:51;;;;;;;7.82;1.42;;;15.40;99.90;;;;;;5066397;28;20036;-37
2022/11/01 10:10:32;;;;;;;9.10;1.25;;;15.40;99.90;;;;;;5071185;28;20445;-38
2022/11/01 10:12:58;;;;;;;13.23;1.63;;;15.50;99.90;;;;;;5064348;28;20046;-37
2022/11/01 10:15:29;;;;;;;6.22;1.33;;;15.50;99.90;;;;;;5066457;28;20230;-38
2022/11/01 10:18:08;;;;;;;22.23;2.85;;;15.50;99.90;;;;;;5061768;28;20032;-38
2022/11/01 10:20:38;;;;;;;6.13;1.63;;;15.50;99.90;;;;;;5072956;28;20039;-38
2022/11/01 10:23:05;;;;;;;8.05;2.55;;;15.60;99.90;;;;;;5072934;28;20040;-43
2022/11/01 10:25:38;;;;;;;12.82;1.13;;;15.60;99.90;;;;;;5073016;28;20041;-40
2022/11/01 10:28:17;;;;;;;11.40;1.77;;;15.60;99.90;;;;;;5072398;28;20031;-38
2022/11/01 10:31:04;;;;;;;5.13;1.00;;;15.70;99.90;;;;;;5058412;28;20037;-37
2022/11/01 10:33:30;;;;;;;;;;;15.70;99.90;;;;;;5061990;28;20154;-38
2022/11/01 10:36:01;;;;;;;10.90;1.42;;;15.80;99.90;;;;;;5062545;28;20007;-34
2022/11/01 10:38:38;;;;;;;4.53;1.13;;;15.90;99.90;;;;;;5059404;28;20047;-42
2022/11/01 10:41:35;;;;;;;16.10;2.53;;;15.90;99.90;;;;;;5063621;28;20020;-33
2022/11/01 10:44:06;;;;;;;9.93;1.73;;;16.00;99.90;;;;;;5070564;28;20070;-52
2022/11/01 10:46:38;;;;;;;8.00;1.25;;;16.10;99.90;;;;;;5055859;28;20361;-42
2022/11/01 10:49:13;;;;;;;6.85;1.40;;;16.10;99.90;;;;;;5058405;28;20028;-43
2022/11/01 10:51:41;;;;;;;4.93;1.25;;;16.10;99.90;;;;;;5064539;28;20029;-47
2022/11/01 10:54:15;;;;;;;14.32;1.48;;;16.20;99.90;;;;;;5055414;28;20040;-43
2022/11/01 10:56:44;;;;;;;8.15;1.17;;;16.20;99.90;;;;;;5056235;28;20033;-42
2022/11/01 10:59:48;;;;;;;13.13;1.80;;;16.30;99.90;;;;;;5089863;28;20040;-43
2022/11/01 11:02:32;;;;;;;10.00;2.05;;;16.30;99.90;;;;;;5102253;28;20110;-43
2022/11/01 11:04:58;;;;;;;15.13;1.70;;;16.40;99.90;;;;;;5100253;28;20085;-43
2022/11/01 11:07:28;;;;;;;6.55;1.08;;;16.40;99.90;;;;;;5105867;28;20024;-41
2022/11/01 11:09:54;;;;;;;6.07;1.17;;;16.40;99.90;;;;;;5095788;28;20419;-59
2022/11/01 11:12:22;;;;;;;9.65;1.20;;;16.40;99.90;;;;;;5096894;28;20016;-42
2022/11/01 11:14:51;;;;;;;7.15;1.40;;;16.50;99.90;;;;;;5095163;28;20016;-42
2022/11/01 11:17:29;;;;;;;12.18;1.85;;;16.50;99.90;;;;;;5096536;28;20020;-41
2022/11/01 11:20:00;;;;;;;5.45;1.20;;;16.40;99.90;;;;;;5097416;28;20028;-44
2022/11/01 11:22:26;;;;;;;6.68;1.30;;;16.50;99.90;;;;;;5100146;28;20456;-37
2022/11/01 11:24:56;;;;;;;13.60;1.75;;;16.50;99.90;;;;;;5106740;28;20028;-41
2022/11/01 11:27:27;;;;;;;9.13;1.75;;;16.50;99.90;;;;;;5096304;28;20031;-45
2022/11/01 11:30:05;;;;;;;10.55;1.38;;;16.50;99.90;;;;;;5105072;28;20502;-43
2022/11/01 11:32:34;;;;;;;12.00;1.13;;;16.60;99.90;;;;;;5115273;28;20387;-42
2022/11/01 11:35:04;;;;;;;7.68;1.33;;;16.60;99.90;;;;;;5116096;27;20069;-44
2022/11/01 11:37:33;;;;;;;7.07;1.23;;;16.60;99.90;;;;;;5096401;28;20491;-44
2022/11/01 11:40:01;;;;;;;10.07;1.38;;;16.70;99.90;;;;;;5098128;28;20023;-43
2022/11/01 11:42:26;;;;;;;12.65;1.50;;;16.70;99.90;;;;;;5104221;28;20020;-43
2022/11/01 11:45:12;;;;;;;6.70;1.17;;;16.80;99.90;;;;;;5096075;28;20073;-44
2022/11/01 11:47:38;;;;;;;8.77;1.50;;;16.80;99.90;;;;;;5095057;28;20036;-41
2022/11/01 11:50:24;;;;;;;8.63;1.40;;;17.00;99.90;;;;;;5097353;28;20050;-45
2022/11/01 11:52:57;;;;;;;9.23;1.70;;;17.00;99.90;;;;;;5095769;28;20108;-45
2022/11/01 11:55:43;;;;;;;6.72;0.90;;;17.00;99.90;;;;;;5094910;28;20016;-42
2022/11/01 11:58:20;;;;;;;6.32;1.00;;;17.00;99.90;;;;;;5090741;28;20042;-51
2022/11/01 12:00:49;;;;;;;4.47;1.03;;;17.00;99.90;;;;;;5092364;28;20022;-42
2022/11/01 12:03:16;;;;;;;7.70;1.02;;;17.00;99.90;;;;;;5098566;28;20690;-38
2022/11/01 12:05:59;;;;;;;8.30;1.02;;;17.00;99.90;;;;;;5102477;28;20084;-44
2022/11/01 12:08:44;;;;;;;8.82;1.30;;;17.00;99.90;;;;;;5100994;28;20028;-47
2022/11/01 12:11:10;;;;;;;8.50;1.00;;;17.00;99.90;;;;;;5103225;28;20494;-44
2022/11/01 12:13:43;;;;;;;7.00;1.70;;;17.10;99.90;;;;;;5096929;28;20024;-46
2022/11/01 12:16:13;;;;;;;4.13;1.40;;;17.20;99.90;;;;;;5099007;28;20380;-40
2022/11/01 12:19:28;;;;;;;10.93;1.30;;;17.20;99.90;;;;;;5094748;28;20474;-45
2022/11/01 12:21:57;;;;;;;20.10;2.15;;;17.30;99.90;;;;;;5092076;28;20881;-47
2022/11/01 12:24:46;;;;;;;3.95;0.70;;;17.40;99.90;;;;;;5097880;28;20499;-49
2022/11/01 12:27:23;;;;;;;7.65;1.67;;;17.40;99.90;;;;;;5094817;28;20491;-49
2022/11/01 12:29:51;;;;;;;7.65;1.33;;;17.40;99.90;;;;;;5094080;28;20040;-46
2022/11/01 12:32:31;;;;;;;5.93;1.05;;;17.40;99.90;;;;;;5091771;28;20472;-43
2022/11/01 12:35:03;;;;;;;7.28;1.38;;;17.40;99.90;;;;;;5094692;28;20039;-49
2022/11/01 12:38:01;;;;;;;9.25;1.13;;;17.40;99.90;;;;;;5102902;28;20027;-46
2022/11/01 12:40:34;;;;;;;7.07;1.27;;;17.50;99.90;;;;;;5094837;28;20336;-45
2022/11/01 12:43:13;;;;;;;10.57;1.27;;;17.50;99.90;;;;;;5099925;28;20024;-45
2022/11/01 12:45:56;;;;;;;4.18;1.30;;;17.50;99.90;;;;;;5090986;28;20025;-37
2022/11/01 12:48:27;;;;;;;4.28;0.93;;;17.60;99.90;;;;;;5098574;28;20024;-41
2022/11/01 12:51:09;;;;;;;8.77;1.00;;;17.60;99.90;;;;;;5090767;28;20571;-40
2022/11/01 12:53:48;;;;;;;7.57;1.23;;;17.60;99.90;;;;;;5094686;28;20032;-39
2022/11/01 12:56:13;;;;;;;10.18;0.90;;;17.60;99.90;;;;;;5092910;28;20028;-39
2022/11/01 12:58:39;;;;;;;4.13;0.80;;;17.70;99.90;;;;;;5092235;28;20044;-36
2022/11/01 13:01:25;;;;;;;4.25;1.02;;;17.60;99.90;;;;;;5089812;28;20480;-42
2022/11/01 13:04:12;;;;;;;10.45;1.15;;;17.60;99.90;;;;;;5090184;28;20464;-42
2022/11/01 13:06:52;;;;;;;5.88;1.13;;;17.70;99.90;;;;;;5088080;28;20028;-39
2022/11/01 13:09:24;;;;;;;3.80;0.68;;;17.70;99.90;;;;;;5089560;28;20073;-40
2022/11/01 13:12:06;;;;;;;6.22;0.75;;;17.90;99.90;;;;;;5102351;28;20416;-46
2022/11/01 13:14:59;;;;;;;5.18;1.05;;;17.90;99.90;;;;;;5098001;28;20020;-39